»·PEaware :: N5665P KHII-L71

N5665P :: KHII-L71

FLIGHT INFORMATION

Flight Status: Arrived
Operator: Privately registered:
United States
More flights under this callsign
Pilot: Yannick E. (9906)
Aircraft: PIPER PA-24 COMMANCHE
(PA24)
More flights by this aircraft type
Origin: KHII Lake Havasu City
United States
Destination: L71 California City Mun
United States
More flights between these airports :: More routes between these airports
Route: EED HEC PMD GWF
File this flight plan on PilotEdge
Remarks:
Altitude:
(Current/Filed)
8,500ft
Speed:
(Current/Filed)
150kts
Departed: 04-Jun-16 04:02 AM
Arrived: 04-Jun-16 05:29 AM
Distance/Time
Traveled:
183nm/1:27
Distance/Time
To Go:
Arrived

Flight Plot

Page will automatically refresh every two minutes.


Map Options




Map Legend


Flown Route
Filed Route
Departure Airport
Arrival Airport
Navaid (VOR, NDB)
Fix

Horizontal Profiles

Position Reports

Time Latitude Longitude Heading Altitude Ground
Speed
04-Jun-16 03:48 34.570943 -114.360633 238 786ft 0kts
04-Jun-16 03:48 34.570943 -114.360633 238 786ft 0kts
04-Jun-16 03:49 34.570943 -114.360633 238 786ft 0kts
04-Jun-16 03:50 34.570943 -114.360633 238 786ft 0kts
04-Jun-16 03:51 34.570943 -114.360633 238 786ft 0kts
04-Jun-16 03:52 34.570941 -114.360636 238 786ft 0kts
04-Jun-16 03:53 34.570940 -114.360639 238 786ft 0kts
04-Jun-16 03:54 34.570938 -114.360643 238 786ft 0kts
04-Jun-16 03:55 34.570716 -114.360403 119 786ft 7kts
04-Jun-16 03:56 34.568385 -114.358222 60 786ft 9kts
04-Jun-16 03:57 34.569153 -114.357722 8 786ft 0kts
04-Jun-16 03:58 34.569939 -114.357610 6 786ft 0kts
04-Jun-16 03:59 34.581682 -114.366970 324 1329ft 99kts
04-Jun-16 04:00 34.603317 -114.389627 319 3019ft 105kts
04-Jun-16 04:01 34.629368 -114.407882 332 4696ft 109kts
04-Jun-16 04:02 34.655645 -114.427538 327 6269ft 112kts
04-Jun-16 04:03 34.682210 -114.448663 325 7368ft 118kts
04-Jun-16 04:04 34.709093 -114.470561 326 8574ft 115kts
04-Jun-16 04:05 34.742405 -114.497074 326 8552ft 154kts
04-Jun-16 04:06 34.778937 -114.527711 322 8557ft 164kts
04-Jun-16 04:07 34.813064 -114.563608 287 8540ft 167kts
04-Jun-16 04:08 34.809648 -114.619602 265 8548ft 167kts
04-Jun-16 04:09 34.804803 -114.675019 266 8557ft 168kts
04-Jun-16 04:10 34.799496 -114.729691 264 8554ft 159kts
04-Jun-16 04:11 34.794666 -114.783402 265 8552ft 159kts
04-Jun-16 04:12 34.789933 -114.837166 264 8552ft 160kts
04-Jun-16 04:13 34.787328 -114.890668 270 8556ft 158kts
04-Jun-16 04:14 34.789371 -114.944106 275 8559ft 157kts
04-Jun-16 04:15 34.794266 -114.999190 277 8558ft 168kts
04-Jun-16 04:16 34.799271 -115.055581 275 8568ft 169kts
04-Jun-16 04:17 34.801892 -115.110679 271 8574ft 159kts
04-Jun-16 04:18 34.801411 -115.164390 268 8570ft 158kts
04-Jun-16 04:19 34.798828 -115.218601 266 8578ft 161kts
04-Jun-16 04:20 34.795830 -115.273558 267 8588ft 164kts
04-Jun-16 04:21 34.794304 -115.329839 269 8596ft 169kts
04-Jun-16 04:22 34.794724 -115.386103 271 8608ft 165kts
04-Jun-16 04:23 34.796434 -115.441120 272 8615ft 161kts
04-Jun-16 04:24 34.797848 -115.497006 271 8621ft 169kts
04-Jun-16 04:26 34.791447 -115.553460 261 8634ft 169kts
04-Jun-16 04:27 34.784028 -115.610196 261 8437ft 178kts
04-Jun-16 04:28 34.776522 -115.667968 261 8402ft 169kts
04-Jun-16 04:29 34.770804 -115.723513 262 8414ft 163kts
04-Jun-16 04:30 34.767966 -115.777536 269 8427ft 159kts
04-Jun-16 04:31 34.768466 -115.832706 271 8433ft 164kts
04-Jun-16 04:32 34.770870 -115.887480 273 8438ft 160kts
04-Jun-16 04:33 34.774482 -115.942393 273 8440ft 164kts
04-Jun-16 04:34 34.777413 -115.998777 272 8438ft 168kts
04-Jun-16 04:35 34.779598 -116.054975 272 8452ft 167kts
04-Jun-16 04:36 34.781721 -116.111224 272 8455ft 165kts
04-Jun-16 04:37 34.784052 -116.165398 272 8452ft 157kts
04-Jun-16 04:38 34.786488 -116.218947 272 8516ft 159kts
04-Jun-16 04:39 34.788901 -116.274602 272 8515ft 166kts
04-Jun-16 04:40 34.791287 -116.330034 272 8513ft 163kts
04-Jun-16 04:41 34.793639 -116.384639 272 8507ft 160kts
04-Jun-16 04:42 34.796056 -116.440452 272 8497ft 165kts
04-Jun-16 04:43 34.796097 -116.496091 266 8487ft 163kts
04-Jun-16 04:44 34.791650 -116.551551 261 8479ft 165kts
04-Jun-16 04:45 34.783505 -116.607647 258 8469ft 167kts
04-Jun-16 04:46 34.773524 -116.662830 257 8459ft 166kts
04-Jun-16 04:47 34.764410 -116.718060 259 8453ft 165kts
04-Jun-16 04:48 34.757593 -116.773045 262 8450ft 163kts
04-Jun-16 04:49 34.752990 -116.829350 265 8452ft 167kts
04-Jun-16 04:49 34.750316 -116.875242 265 8458ft 161kts
04-Jun-16 04:51 34.746109 -116.940498 264 8474ft 168kts
04-Jun-16 04:51 34.741954 -116.987983 262 8494ft 171kts
04-Jun-16 04:52 34.735823 -117.043198 261 8504ft 160kts
04-Jun-16 04:53 34.729180 -117.096933 261 8510ft 160kts
04-Jun-16 04:54 34.722709 -117.151938 261 8524ft 170kts
04-Jun-16 04:55 34.716980 -117.207627 262 8524ft 164kts
04-Jun-16 04:56 34.711974 -117.262408 263 8520ft 162kts
04-Jun-16 04:57 34.707026 -117.316678 262 8517ft 160kts
04-Jun-16 04:58 34.701727 -117.370632 262 8516ft 160kts
04-Jun-16 04:59 34.696096 -117.425394 262 8507ft 165kts
04-Jun-16 05:00 34.690256 -117.480283 262 8507ft 164kts
04-Jun-16 05:01 34.684660 -117.534924 262 8501ft 162kts
04-Jun-16 05:02 34.679204 -117.590257 262 8497ft 167kts
04-Jun-16 05:03 34.673568 -117.646209 262 8494ft 168kts
04-Jun-16 05:04 34.668044 -117.701064 262 8485ft 161kts
04-Jun-16 05:05 34.666550 -117.755793 278 8484ft 164kts
04-Jun-16 05:06 34.673768 -117.810572 278 8480ft 164kts
04-Jun-16 05:07 34.680831 -117.864933 279 8480ft 161kts
04-Jun-16 05:08 34.688148 -117.918890 278 8481ft 161kts
04-Jun-16 05:09 34.695441 -117.973549 279 8488ft 167kts
04-Jun-16 05:10 34.704080 -118.028892 279 8488ft 168kts
04-Jun-16 05:11 34.713034 -118.086289 279 8489ft 176kts
04-Jun-16 05:12 34.725003 -118.143967 284 8490ft 176kts
04-Jun-16 05:13 34.737245 -118.200783 283 8489ft 172kts
04-Jun-16 05:14 34.764863 -118.235368 7 8508ft 163kts
04-Jun-16 05:15 34.810115 -118.228449 7 8500ft 163kts
04-Jun-16 05:16 34.856739 -118.220316 12 8503ft 174kts
04-Jun-16 05:17 34.902619 -118.209650 10 8515ft 164kts
04-Jun-16 05:18 34.948574 -118.199404 10 7843ft 166kts
04-Jun-16 05:19 34.994242 -118.188632 10 6452ft 168kts
04-Jun-16 05:20 35.038900 -118.174572 15 5553ft 163kts
04-Jun-16 05:21 35.074436 -118.157513 47 5099ft 134kts
04-Jun-16 05:22 35.102975 -118.122446 39 4992ft 147kts
04-Jun-16 05:23 35.130818 -118.086890 56 4630ft 134kts
04-Jun-16 05:24 35.144677 -118.050054 75 3098ft 103kts
04-Jun-16 05:25 35.150311 -118.021213 75 2459ft 66kts
04-Jun-16 05:26 35.150578 -118.016258 168 2457ft 0kts
04-Jun-16 05:27 35.149715 -118.015393 143 2457ft 5kts
04-Jun-16 05:28 35.149652 -118.015174 269 2457ft 0kts
04-Jun-16 05:30 35.149652 -118.015174 269 2457ft 0kts
04-Jun-16 05:31 35.149652 -118.015174 269 2457ft 0kts
04-Jun-16 05:32 35.149652 -118.015174 269 2457ft 0kts

Navigation Log

Ident Type
1. KHII Airport
2. EED Navaid
3. HEC Navaid
4. PMD Navaid
5. GWF Navaid
6. L71 Airport